Time;durP1;ratioP1;P1;durP2;ratioP2;P2;SDS_P1;SDS_P2;PMS_P1;PMS_P2;Temp;Humidity;BMP_temperature;BMP_pressure;BME280_temperature;BME280_humidity;BME280_pressure;Samples;Min_cycle;Max_cycle;Signal;HPM_P1;HPM_P2
2024/01/23 00:00:08;;;;;;;4.22;1.02;;;;;;;-148.88;100.00;-17125.47;5073619;28;20447;-89
2024/01/23 00:02:34;;;;;;;5.55;1.25;;;;;;;-148.88;100.00;-17125.47;5073487;28;20029;-90
2024/01/23 00:05:00;;;;;;;5.15;1.15;;;;;;;-148.88;100.00;-17125.47;5073208;28;20028;-87
2024/01/23 00:07:28;;;;;;;4.93;1.10;;;;;;;-148.88;100.00;-17125.47;5073948;28;20104;-90
2024/01/23 00:09:54;;;;;;;7.63;1.27;;;;;;;-148.88;100.00;-17125.47;5072390;28;20035;-89
2024/01/23 00:12:19;;;;;;;8.32;1.60;;;;;;;-148.88;100.00;-17125.47;5074301;28;20390;-91
2024/01/23 00:14:45;;;;;;;6.35;1.38;;;;;;;-148.88;100.00;-17125.47;5073735;28;20032;-90
2024/01/23 00:17:10;;;;;;;5.45;1.02;;;;;;;-148.88;100.00;-17125.47;5074702;28;20071;-90
2024/01/23 00:19:36;;;;;;;7.35;1.60;;;;;;;-148.88;100.00;-17125.47;5076395;28;20080;-90
2024/01/23 00:22:02;;;;;;;3.97;0.90;;;;;;;-148.88;100.00;-17125.47;5074820;28;20055;-90
2024/01/23 00:24:27;;;;;;;5.47;1.30;;;;;;;-148.88;100.00;-17125.47;5074092;28;20471;-89
2024/01/23 00:26:53;;;;;;;7.53;1.10;;;;;;;-148.88;100.00;-17125.47;5073176;28;20020;-90
2024/01/23 00:29:18;;;;;;;8.52;1.20;;;;;;;-148.88;100.00;-17125.47;5074312;28;20028;-88
2024/01/23 00:31:43;;;;;;;5.40;1.52;;;;;;;-148.88;100.00;-17125.47;5074193;28;20028;-90
2024/01/23 00:34:09;;;;;;;7.40;1.63;;;;;;;-148.88;100.00;-17125.47;5074075;28;20031;-89
2024/01/23 00:36:34;;;;;;;8.70;1.15;;;;;;;-148.88;100.00;-17125.47;5074076;28;20113;-90
2024/01/23 00:38:59;;;;;;;5.63;1.30;;;;;;;-148.88;100.00;-17125.47;5076875;28;20070;-90
2024/01/23 00:41:25;;;;;;;7.97;1.38;;;;;;;-148.88;100.00;-17125.47;5077318;28;20107;-90
2024/01/23 00:43:50;;;;;;;10.27;1.65;;;;;;;-148.88;100.00;-17125.47;5076416;28;20020;-88
2024/01/23 00:46:15;;;;;;;9.43;2.53;;;;;;;-148.88;100.00;-17125.47;5076861;28;20023;-89
2024/01/23 00:48:41;;;;;;;19.70;2.00;;;;;;;-148.88;100.00;-17125.47;5078814;28;20021;-90
2024/01/23 00:51:06;;;;;;;5.68;1.25;;;;;;;-148.88;100.00;-17125.47;5077110;28;20026;-90
2024/01/23 00:53:32;;;;;;;9.35;1.52;;;;;;;-148.88;100.00;-17125.47;5076707;28;20107;-90
2024/01/23 00:55:58;;;;;;;11.93;2.13;;;;;;;-148.88;100.00;-17125.47;5075809;28;20029;-88
2024/01/23 00:58:24;;;;;;;13.60;2.25;;;;;;;-148.88;100.00;-17125.47;5075866;28;20445;-89
2024/01/23 01:00:50;;;;;;;9.73;1.48;;;;;;;-148.88;100.00;-17125.47;5076863;28;20031;-90
2024/01/23 01:03:16;;;;;;;7.35;1.70;;;;;;;-148.88;100.00;-17125.47;5075965;28;20024;-89
2024/01/23 01:05:42;;;;;;;7.70;1.67;;;;;;;-148.88;100.00;-17125.47;5076748;28;20028;-90
2024/01/23 01:08:07;;;;;;;9.40;1.92;;;;;;;-148.88;100.00;-17125.47;5077183;28;20471;-89
2024/01/23 01:10:33;;;;;;;9.77;1.50;;;;;;;-148.88;100.00;-17125.47;5076892;28;20039;-90
2024/01/23 01:12:58;;;;;;;7.30;1.25;;;;;;;-148.88;100.00;-17125.47;5077071;28;20020;-91
2024/01/23 01:15:24;;;;;;;11.35;1.67;;;;;;;-148.88;100.00;-17125.47;5075877;28;20494;-91
2024/01/23 01:17:52;;;;;;;11.43;2.35;;;;;;;-148.88;100.00;-17125.47;5077148;28;20035;-91
2024/01/23 01:20:18;;;;;;;11.50;1.67;;;;;;;-148.88;100.00;-17125.47;5076222;28;20025;-92
2024/01/23 01:22:43;;;;;;;8.02;2.25;;;;;;;-148.88;100.00;-17125.47;5076624;28;20044;-91
2024/01/23 01:25:08;;;;;;;10.27;2.20;;;;;;;-148.88;100.00;-17125.47;5076926;28;20021;-90
2024/01/23 01:27:34;;;;;;;11.80;2.03;;;;;;;-148.88;100.00;-17125.47;5075319;28;20483;-88
2024/01/23 01:30:00;;;;;;;8.98;2.28;;;;;;;-148.88;100.00;-17125.47;5077675;28;20029;-89
2024/01/23 01:32:25;;;;;;;7.75;1.63;;;;;;;-148.88;100.00;-17125.47;5077239;28;20024;-90
2024/01/23 01:34:51;;;;;;;12.35;1.42;;;;;;;-148.88;100.00;-17125.47;5076257;28;20479;-90
2024/01/23 01:37:16;;;;;;;11.15;1.50;;;;;;;-148.88;100.00;-17125.47;5075738;28;20023;-89
2024/01/23 01:39:44;;;;;;;11.80;1.75;;;;;;;-148.88;100.00;-17125.47;5075457;28;20028;-90
2024/01/23 01:42:10;;;;;;;7.60;1.90;;;;;;;-148.88;100.00;-17125.47;5075798;28;20024;-87
2024/01/23 01:44:35;;;;;;;11.48;2.08;;;;;;;-148.88;100.00;-17125.47;5076531;28;20035;-89
2024/01/23 01:47:00;;;;;;;16.42;3.50;;;;;;;-148.88;100.00;-17125.47;5075296;28;20020;-86
2024/01/23 01:49:26;;;;;;;5.82;2.22;;;;;;;-148.88;100.00;-17125.47;5075194;28;20028;-87
2024/01/23 01:51:52;;;;;;;7.10;1.20;;;;;;;-148.88;100.00;-17125.47;5075894;28;20087;-89
2024/01/23 01:54:21;;;;;;;11.63;2.13;;;;;;;-148.88;100.00;-17125.47;5074673;28;20024;-90
2024/01/23 01:56:47;;;;;;;12.38;2.13;;;;;;;-148.88;100.00;-17125.47;5075627;28;20024;-89
2024/01/23 01:59:12;;;;;;;8.30;2.50;;;;;;;-148.88;100.00;-17125.47;5073922;28;20437;-87
2024/01/23 02:01:39;;;;;;;7.25;1.70;;;;;;;-148.88;100.00;-17125.47;5074286;28;20051;-89
2024/01/23 02:04:04;;;;;;;18.70;2.50;;;;;;;-148.88;100.00;-17125.47;5074991;28;20024;-87
2024/01/23 02:06:30;;;;;;;10.60;1.42;;;;;;;-148.88;100.00;-17125.47;5075300;28;20029;-89
2024/01/23 02:08:56;;;;;;;10.98;1.70;;;;;;;-148.88;100.00;-17125.47;5073841;28;20020;-89
2024/01/23 02:11:22;;;;;;;10.80;1.80;;;;;;;-148.88;100.00;-17125.47;5074385;28;20031;-89
2024/01/23 02:13:47;;;;;;;12.27;1.98;;;;;;;-148.88;100.00;-17125.47;5074354;28;20428;-89
2024/01/23 02:16:12;;;;;;;11.73;1.83;;;;;;;-148.88;100.00;-17125.47;5074767;28;20071;-90
2024/01/23 02:18:38;;;;;;;12.13;2.13;;;;;;;-148.88;100.00;-17125.47;5074664;28;20025;-90
2024/01/23 02:21:04;;;;;;;7.97;1.75;;;;;;;-148.88;100.00;-17125.47;5075019;28;20028;-88
2024/01/23 02:23:30;;;;;;;7.10;1.30;;;;;;;-148.88;100.00;-17125.47;5074655;28;20398;-87
2024/01/23 02:25:56;;;;;;;6.88;1.05;;;;;;;-148.88;100.00;-17125.47;5073461;28;20028;-88
2024/01/23 02:28:22;;;;;;;11.63;1.17;;;;;;;-148.88;100.00;-17125.47;5073586;28;20035;-90
2024/01/23 02:30:47;;;;;;;5.28;1.27;;;;;;;-148.88;100.00;-17125.47;5074822;28;20028;-88
2024/01/23 02:33:14;;;;;;;3.33;0.52;;;;;;;-148.88;100.00;-17125.47;5074501;28;20029;-88
2024/01/23 02:35:43;;;;;;;7.80;1.25;;;;;;;-148.88;100.00;-17125.47;5073258;28;20055;-89
2024/01/23 02:38:08;;;;;;;7.95;1.35;;;;;;;-148.88;100.00;-17125.47;5074571;28;20028;-89
2024/01/23 02:40:34;;;;;;;14.57;1.88;;;;;;;-148.88;100.00;-17125.47;5074450;28;20445;-89
2024/01/23 02:42:59;;;;;;;7.93;1.65;;;;;;;-148.88;100.00;-17125.47;5074464;28;20036;-89
2024/01/23 02:45:25;;;;;;;5.68;0.93;;;;;;;-148.88;100.00;-17125.47;5074226;28;20016;-89
2024/01/23 02:47:50;;;;;;;7.60;1.05;;;;;;;-148.88;100.00;-17125.47;5073071;28;20394;-89
2024/01/23 02:50:16;;;;;;;7.72;1.10;;;;;;;-148.88;100.00;-17125.47;5074399;28;20098;-89
2024/01/23 02:52:41;;;;;;;6.13;1.42;;;;;;;-148.88;100.00;-17125.47;5074156;28;20032;-88
2024/01/23 02:55:07;;;;;;;4.97;1.42;;;;;;;-148.88;100.00;-17125.47;5074380;28;20448;-88
2024/01/23 02:57:32;;;;;;;11.15;1.50;;;;;;;-148.88;100.00;-17125.47;5074402;28;20066;-90
2024/01/23 02:59:58;;;;;;;9.55;1.40;;;;;;;-148.88;100.00;-17125.47;5074176;28;20082;-88
2024/01/23 03:02:24;;;;;;;12.48;1.40;;;;;;;-148.88;100.00;-17125.47;5073946;28;20482;-90
2024/01/23 03:04:49;;;;;;;12.23;1.63;;;;;;;-148.88;100.00;-17125.47;5073230;28;20422;-90
2024/01/23 03:07:16;;;;;;;6.57;1.40;;;;;;;-148.88;100.00;-17125.47;5073796;28;20021;-88
2024/01/23 03:09:41;;;;;;;10.50;1.38;;;;;;;-148.88;100.00;-17125.47;5072674;28;20471;-86
2024/01/23 03:12:17;;;;;;;9.20;1.98;;;;;;;-148.88;100.00;-17125.47;5072514;28;20078;-88
2024/01/23 03:14:43;;;;;;;13.20;2.28;;;;;;;-148.88;100.00;-17125.47;5073701;28;20031;-89
2024/01/23 03:17:10;;;;;;;11.85;1.15;;;;;;;-148.88;100.00;-17125.47;5073986;28;20031;-89
2024/01/23 03:19:36;;;;;;;9.88;1.10;;;;;;;-148.88;100.00;-17125.47;5073845;28;20512;-89
2024/01/23 03:22:01;;;;;;;5.22;1.52;;;;;;;-148.88;100.00;-17125.47;5073500;28;20096;-89
2024/01/23 03:24:27;;;;;;;8.82;1.45;;;;;;;-148.88;100.00;-17125.47;5073894;28;20036;-90
2024/01/23 03:26:52;;;;;;;7.32;1.27;;;;;;;-148.88;100.00;-17125.47;5073664;28;20487;-89
2024/01/23 03:29:17;;;;;;;9.02;1.30;;;;;;;-148.88;100.00;-17125.47;5073854;28;20128;-89
2024/01/23 03:31:43;;;;;;;10.55;1.52;;;;;;;-148.88;100.00;-17125.47;5073911;28;20025;-90
2024/01/23 03:34:08;;;;;;;5.70;1.55;;;;;;;-148.88;100.00;-17125.47;5072363;28;20036;-90
2024/01/23 03:36:34;;;;;;;9.15;1.67;;;;;;;-148.88;100.00;-17125.47;5073864;28;20052;-88
2024/01/23 03:38:59;;;;;;;7.70;1.58;;;;;;;-148.88;100.00;-17125.47;5073717;28;20070;-89
2024/01/23 03:41:24;;;;;;;13.50;1.42;;;;;;;-148.88;100.00;-17125.47;5074077;28;20028;-89
2024/01/23 03:43:50;;;;;;;8.25;1.88;;;;;;;-148.88;100.00;-17125.47;5072653;28;20048;-88
2024/01/23 03:46:15;;;;;;;12.32;1.70;;;;;;;-148.88;100.00;-17125.47;5073983;28;20360;-88
2024/01/23 03:48:40;;;;;;;6.75;2.33;;;;;;;-148.88;100.00;-17125.47;5073844;28;20021;-90
2024/01/23 03:51:06;;;;;;;11.30;1.90;;;;;;;-148.88;100.00;-17125.47;5074372;28;20035;-90
2024/01/23 03:53:32;;;;;;;10.45;1.40;;;;;;;-148.88;100.00;-17125.47;5074072;28;20024;-88
2024/01/23 03:55:58;;;;;;;7.15;1.70;;;;;;;-148.88;100.00;-17125.47;5074433;28;20024;-89
2024/01/23 03:58:23;;;;;;;7.60;1.20;;;;;;;-148.88;100.00;-17125.47;5072698;28;20097;-89
2024/01/23 04:00:49;;;;;;;12.07;2.28;;;;;;;-148.88;100.00;-17125.47;5073374;28;20486;-88
2024/01/23 04:03:14;;;;;;;9.50;1.25;;;;;;;-148.88;100.00;-17125.47;5072256;28;20020;-90
2024/01/23 04:05:43;;;;;;;11.05;1.70;;;;;;;-148.88;100.00;-17125.47;5074036;28;20093;-89
2024/01/23 04:08:11;;;;;;;13.50;2.47;;;;;;;-148.88;100.00;-17125.47;5073531;28;20097;-89
2024/01/23 04:10:37;;;;;;;16.23;3.42;;;;;;;-148.88;100.00;-17125.47;5074021;28;20035;-90
2024/01/23 04:13:02;;;;;;;12.60;2.25;;;;;;;-148.88;100.00;-17125.47;5072837;28;20024;-88
2024/01/23 04:15:27;;;;;;;15.05;2.17;;;;;;;-148.88;100.00;-17125.47;5077440;28;20020;-88
2024/01/23 04:17:55;;;;;;;7.85;1.70;;;;;;;-148.88;100.00;-17125.47;5075906;28;20123;-87
2024/01/23 04:20:20;;;;;;;9.15;2.17;;;;;;;-148.88;100.00;-17125.47;5077150;28;20479;-88
2024/01/23 04:22:49;;;;;;;9.05;1.80;;;;;;;-148.88;100.00;-17125.47;5076469;28;20027;-87
2024/01/23 04:25:14;;;;;;;16.95;2.63;;;;;;;-148.88;100.00;-17125.47;5076151;28;20107;-87
2024/01/23 04:27:43;;;;;;;12.57;1.88;;;;;;;-148.88;100.00;-17125.47;5076666;28;20538;-89
2024/01/23 04:30:09;;;;;;;10.38;1.85;;;;;;;-148.88;100.00;-17125.47;5077035;28;20056;-89
2024/01/23 04:32:34;;;;;;;4.95;1.33;;;;;;;-148.88;100.00;-17125.47;5075903;28;20028;-88
2024/01/23 04:34:59;;;;;;;11.90;1.70;;;;;;;-148.88;100.00;-17125.47;5077456;28;20119;-88
2024/01/23 04:37:25;;;;;;;10.95;1.50;;;;;;;-148.88;100.00;-17125.47;5075366;28;20035;-89
2024/01/23 04:39:50;;;;;;;10.18;1.80;;;;;;;-148.88;100.00;-17125.47;5076714;28;20029;-87
2024/01/23 04:42:16;;;;;;;16.63;2.00;;;;;;;-148.88;100.00;-17125.47;5075450;28;20027;-88
2024/01/23 04:44:41;;;;;;;6.95;1.80;;;;;;;-148.88;100.00;-17125.47;5076091;28;20111;-90
2024/01/23 04:47:07;;;;;;;14.20;2.47;;;;;;;-148.88;100.00;-17125.47;5075855;28;20026;-89
2024/01/23 04:49:35;;;;;;;8.65;1.50;;;;;;;-148.88;100.00;-17125.47;5075377;28;20482;-91
2024/01/23 04:52:00;;;;;;;22.90;2.25;;;;;;;-148.88;100.00;-17125.47;5075136;28;20035;-90
2024/01/23 04:54:26;;;;;;;10.50;1.77;;;;;;;-148.88;100.00;-17125.47;5076461;28;20024;-89
2024/01/23 04:56:51;;;;;;;12.70;1.95;;;;;;;-148.88;100.00;-17125.47;5075313;28;20024;-88
2024/01/23 04:59:16;;;;;;;9.57;1.52;;;;;;;-148.88;100.00;-17125.47;5076019;28;20429;-88
2024/01/23 05:01:42;;;;;;;14.63;1.73;;;;;;;-148.88;100.00;-17125.47;5076608;28;20112;-88
2024/01/23 05:04:07;;;;;;;9.50;1.42;;;;;;;-148.88;100.00;-17125.47;5075021;28;20063;-89
2024/01/23 05:06:32;;;;;;;7.80;2.05;;;;;;;-148.88;100.00;-17125.47;5076261;28;20025;-88
2024/01/23 05:08:58;;;;;;;10.90;1.70;;;;;;;-148.88;100.00;-17125.47;5075784;28;20066;-89
2024/01/23 05:11:23;;;;;;;11.38;1.52;;;;;;;-148.88;100.00;-17125.47;5075598;28;20111;-86
2024/01/23 05:13:52;;;;;;;14.25;2.10;;;;;;;-148.88;100.00;-17125.47;5074960;28;20025;-89
2024/01/23 05:16:18;;;;;;;12.80;1.65;;;;;;;-148.88;100.00;-17125.47;5075430;28;20048;-87
2024/01/23 05:18:44;;;;;;;10.07;2.08;;;;;;;-148.88;100.00;-17125.47;5077611;28;20028;-88
2024/01/23 05:21:09;;;;;;;6.78;1.63;;;;;;;-148.88;100.00;-17125.47;5074912;28;20032;-88
2024/01/23 05:23:41;;;;;;;18.25;2.22;;;;;;;-148.88;100.00;-17125.47;5075193;28;20497;-88
2024/01/23 05:26:07;;;;;;;7.50;1.25;;;;;;;-148.88;100.00;-17125.47;5076479;28;20048;-88
2024/01/23 05:28:32;;;;;;;7.90;2.10;;;;;;;-148.88;100.00;-17125.47;5074979;28;20032;-89
2024/01/23 05:30:58;;;;;;;9.90;1.65;;;;;;;-148.88;100.00;-17125.47;5075314;28;20028;-89
2024/01/23 05:33:25;;;;;;;13.93;1.65;;;;;;;-148.88;100.00;-17125.47;5074329;28;20054;-89
2024/01/23 05:35:51;;;;;;;14.10;2.15;;;;;;;-148.88;100.00;-17125.47;5076507;28;20024;-88
2024/01/23 05:38:17;;;;;;;10.32;2.20;;;;;;;-148.88;100.00;-17125.47;5076001;28;20490;-89
2024/01/23 05:40:42;;;;;;;14.35;2.80;;;;;;;-148.88;100.00;-17125.47;5074309;28;20036;-89
2024/01/23 05:43:08;;;;;;;15.20;2.10;;;;;;;-148.88;100.00;-17125.47;5074294;28;20024;-88
2024/01/23 05:45:36;;;;;;;10.57;2.25;;;;;;;-148.88;100.00;-17125.47;5076053;28;20478;-88
2024/01/23 05:48:04;;;;;;;10.55;1.70;;;;;;;-148.88;100.00;-17125.47;5074659;28;20497;-88
2024/01/23 05:50:30;;;;;;;9.43;2.22;;;;;;;-148.88;100.00;-17125.47;5074981;28;20033;-87
2024/01/23 05:52:55;;;;;;;15.73;2.05;;;;;;;-148.88;100.00;-17125.47;5076770;28;20020;-88
2024/01/23 05:55:21;;;;;;;25.65;2.67;;;;;;;-148.88;100.00;-17125.47;5075775;28;20395;-88
2024/01/23 05:57:47;;;;;;;8.32;1.73;;;;;;;-148.88;100.00;-17125.47;5074499;28;20020;-90
2024/01/23 06:00:13;;;;;;;14.13;2.83;;;;;;;-148.88;100.00;-17125.47;5074650;28;20036;-87
2024/01/23 06:02:45;;;;;;;16.00;2.20;;;;;;;-148.88;100.00;-17125.47;5074710;28;20028;-88
2024/01/23 06:05:11;;;;;;;11.63;1.58;;;;;;;-148.88;100.00;-17125.47;5074722;28;20020;-87
2024/01/23 06:07:43;;;;;;;16.52;2.65;;;;;;;-148.88;100.00;-17125.47;5074388;28;20020;-87
2024/01/23 06:10:11;;;;;;;9.48;2.35;;;;;;;-148.88;100.00;-17125.47;5075394;28;20103;-87
2024/01/23 06:12:36;;;;;;;14.70;2.00;;;;;;;-148.88;100.00;-17125.47;5075332;28;20031;-89
2024/01/23 06:15:02;;;;;;;12.32;1.83;;;;;;;-148.88;100.00;-17125.47;5076197;28;20025;-89
2024/01/23 06:17:28;;;;;;;10.52;1.85;;;;;;;-148.88;100.00;-17125.47;5074903;28;20020;-89
2024/01/23 06:19:53;;;;;;;10.20;2.20;;;;;;;-148.88;100.00;-17125.47;5074284;28;20060;-88
2024/01/23 06:22:19;;;;;;;15.38;1.63;;;;;;;-148.88;100.00;-17125.47;5075483;28;20020;-88
2024/01/23 06:25:04;;;;;;;13.13;2.53;;;;;;;-148.88;100.00;-17125.47;5074929;28;20016;-88
2024/01/23 06:27:36;;;;;;;14.60;2.75;;;;;;;-148.88;100.00;-17125.47;5076071;28;20031;-89
2024/01/23 06:30:02;;;;;;;9.05;2.65;;;;;;;-148.88;100.00;-17125.47;5075404;28;20024;-88
2024/01/23 06:32:30;;;;;;;14.13;2.83;;;;;;;-148.88;100.00;-17125.47;5073841;28;20047;-87
2024/01/23 06:34:55;;;;;;;16.02;2.35;;;;;;;-148.88;100.00;-17125.47;5074212;28;20059;-88
2024/01/23 06:37:21;;;;;;;12.77;2.17;;;;;;;-148.88;100.00;-17125.47;5072846;28;20094;-89
2024/01/23 06:39:47;;;;;;;14.00;2.63;;;;;;;-148.88;100.00;-17125.47;5074665;28;20024;-88
2024/01/23 06:42:16;;;;;;;11.15;1.90;;;;;;;-148.88;100.00;-17125.47;5073455;28;20062;-88
2024/01/23 06:44:41;;;;;;;13.95;1.85;;;;;;;-148.88;100.00;-17125.47;5073223;28;20051;-88
2024/01/23 06:47:09;;;;;;;15.23;2.25;;;;;;;-148.88;100.00;-17125.47;5072955;28;20487;-88
2024/01/23 06:49:34;;;;;;;13.93;1.88;;;;;;;-148.88;100.00;-17125.47;5072754;28;20037;-87
2024/01/23 06:52:00;;;;;;;12.40;2.58;;;;;;;-148.88;100.00;-17125.47;5069449;28;20031;-87
2024/01/23 06:54:26;;;;;;;14.60;2.92;;;;;;;-148.88;100.00;-17125.47;5069838;28;20082;-88
2024/01/23 06:56:51;;;;;;;11.38;1.98;;;;;;;-148.88;100.00;-17125.47;5070941;28;20028;-88
2024/01/23 06:59:17;;;;;;;15.57;2.15;;;;;;;-148.88;100.00;-17125.47;5070165;28;20116;-87
2024/01/23 07:01:42;;;;;;;8.70;1.73;;;;;;;-148.88;100.00;-17125.47;5071290;28;20047;-88
2024/01/23 07:04:07;;;;;;;12.13;1.75;;;;;;;-148.88;100.00;-17125.47;5070747;28;20482;-87
2024/01/23 07:06:33;;;;;;;11.73;2.13;;;;;;;-148.88;100.00;-17125.47;5072076;28;20050;-89
2024/01/23 07:08:58;;;;;;;11.68;1.75;;;;;;;-148.88;100.00;-17125.47;5074264;28;20024;-89
2024/01/23 07:11:24;;;;;;;18.48;2.85;;;;;;;-148.88;100.00;-17125.47;5073639;28;20028;-87
2024/01/23 07:13:52;;;;;;;11.88;1.95;;;;;;;-148.88;100.00;-17125.47;5072966;28;20067;-86
2024/01/23 07:16:20;;;;;;;15.95;3.58;;;;;;;-148.88;100.00;-17125.47;5074053;28;20027;-86
2024/01/23 07:18:45;;;;;;;12.10;1.90;;;;;;;-148.88;100.00;-17125.47;5072183;28;20445;-86
2024/01/23 07:21:11;;;;;;;10.23;1.83;;;;;;;-148.88;100.00;-17125.47;5074032;28;20479;-86
2024/01/23 07:23:37;;;;;;;10.10;2.13;;;;;;;-148.88;100.00;-17125.47;5073936;28;20024;-86
2024/01/23 07:26:02;;;;;;;16.38;2.05;;;;;;;-148.88;100.00;-17125.47;5072379;28;20073;-85
2024/01/23 07:28:28;;;;;;;16.08;2.63;;;;;;;-148.88;100.00;-17125.47;5074748;28;20024;-85
2024/01/23 07:30:54;;;;;;;14.35;2.08;;;;;;;-148.88;100.00;-17125.47;5072366;28;20392;-87
2024/01/23 07:33:19;;;;;;;8.88;2.47;;;;;;;-148.88;100.00;-17125.47;5072112;28;20029;-86
2024/01/23 07:35:44;;;;;;;5.38;1.65;;;;;;;-148.88;100.00;-17125.47;5073356;28;20425;-87
2024/01/23 07:38:12;;;;;;;11.38;2.28;;;;;;;-148.88;100.00;-17125.47;5072221;28;20047;-88
2024/01/23 07:40:38;;;;;;;9.23;2.05;;;;;;;-148.88;100.00;-17125.47;5073750;28;20036;-88
2024/01/23 07:43:04;;;;;;;10.05;2.47;;;;;;;-148.88;100.00;-17125.47;5072373;28;20036;-87
2024/01/23 07:45:30;;;;;;;14.98;2.85;;;;;;;-148.88;100.00;-17125.47;5072543;28;20032;-88
2024/01/23 07:47:55;;;;;;;17.70;2.45;;;;;;;-148.88;100.00;-17125.47;5072799;28;20070;-88
2024/01/23 07:50:21;;;;;;;15.68;2.38;;;;;;;-148.88;100.00;-17125.47;5073722;28;20024;-88
2024/01/23 07:52:46;;;;;;;13.23;2.50;;;;;;;-148.88;100.00;-17125.47;5074051;28;20024;-91
2024/01/23 07:55:11;;;;;;;12.77;2.28;;;;;;;-148.88;100.00;-17125.47;5073921;28;20199;-88
2024/01/23 07:57:37;;;;;;;11.68;2.05;;;;;;;-148.88;100.00;-17125.47;5072627;28;20020;-88
2024/01/23 08:00:03;;;;;;;22.13;2.67;;;;;;;-148.88;100.00;-17125.47;5072846;28;20052;-88
2024/01/23 08:02:29;;;;;;;19.45;1.98;;;;;;;-148.88;100.00;-17125.47;5073915;28;20171;-89
2024/01/23 08:04:54;;;;;;;11.73;2.38;;;;;;;-148.88;100.00;-17125.47;5073660;28;20024;-87
2024/01/23 08:07:20;;;;;;;10.38;1.83;;;;;;;-148.88;100.00;-17125.47;5072993;28;20528;-88
2024/01/23 08:09:45;;;;;;;12.15;1.85;;;;;;;-148.88;100.00;-17125.47;5072936;28;20052;-89
2024/01/23 08:12:11;;;;;;;19.40;2.22;;;;;;;-148.88;100.00;-17125.47;5074706;28;20056;-89
2024/01/23 08:14:36;;;;;;;10.68;1.92;;;;;;;-148.88;100.00;-17125.47;5082204;28;20017;-87
2024/01/23 08:17:02;;;;;;;15.13;1.80;;;;;;;-148.88;100.00;-17125.47;5074798;28;20020;-88
2024/01/23 08:19:28;;;;;;;20.50;2.55;;;;;;;-148.88;100.00;-17125.47;5072029;28;20033;-88
2024/01/23 08:21:53;;;;;;;15.75;1.95;;;;;;;-148.88;100.00;-17125.47;5072323;28;20028;-88
2024/01/23 08:24:18;;;;;;;12.90;1.63;;;;;;;-148.88;100.00;-17125.47;5073281;28;20028;-88
2024/01/23 08:26:44;;;;;;;15.15;2.13;;;;;;;-148.88;100.00;-17125.47;5072173;28;20067;-89
2024/01/23 08:29:09;;;;;;;10.88;2.30;;;;;;;-148.88;100.00;-17125.47;5073420;28;20063;-90
2024/01/23 08:31:34;;;;;;;15.88;3.92;;;;;;;-148.88;100.00;-17125.47;5072510;28;20024;-90
2024/01/23 08:34:00;;;;;;;11.45;2.22;;;;;;;-148.88;100.00;-17125.47;5072976;28;20025;-89
2024/01/23 08:36:25;;;;;;;13.93;2.85;;;;;;;-148.88;100.00;-17125.47;5072792;28;20020;-88
2024/01/23 08:38:51;;;;;;;10.95;2.33;;;;;;;-148.88;100.00;-17125.47;5072158;28;20017;-87
2024/01/23 08:41:16;;;;;;;12.73;1.85;;;;;;;-148.88;100.00;-17125.47;5073112;28;20098;-87
2024/01/23 08:43:44;;;;;;;9.00;2.10;;;;;;;-148.88;100.00;-17125.47;5073462;28;20027;-88
2024/01/23 08:46:09;;;;;;;12.75;2.38;;;;;;;-148.88;100.00;-17125.47;5073188;28;20483;-89
2024/01/23 08:48:35;;;;;;;13.27;1.90;;;;;;;-148.88;100.00;-17125.47;5071886;28;20024;-89
2024/01/23 08:51:01;;;;;;;17.85;3.33;;;;;;;-148.88;100.00;-17125.47;5072947;28;20046;-89
2024/01/23 08:53:26;;;;;;;20.42;3.28;;;;;;;-148.88;100.00;-17125.47;5071653;28;20036;-87
2024/01/23 08:55:52;;;;;;;19.08;3.10;;;;;;;-148.88;100.00;-17125.47;5073159;28;20108;-87
2024/01/23 08:58:18;;;;;;;15.50;2.58;;;;;;;-148.88;100.00;-17125.47;5071314;28;20052;-87
2024/01/23 09:00:44;;;;;;;7.32;2.33;;;;;;;-148.88;100.00;-17125.47;5075472;28;20035;-88
2024/01/23 09:03:10;;;;;;;14.35;3.45;;;;;;;-148.88;100.00;-17125.47;5075181;28;20359;-87
2024/01/23 09:05:35;;;;;;;15.55;2.35;;;;;;;-148.88;100.00;-17125.47;5076455;28;20082;-85
2024/01/23 09:08:01;;;;;;;9.88;1.92;;;;;;;-148.88;100.00;-17125.47;5074804;28;20017;-87
2024/01/23 09:10:27;;;;;;;13.40;2.08;;;;;;;-148.88;100.00;-17125.47;5076359;28;20024;-87
2024/01/23 09:12:53;;;;;;;10.48;2.42;;;;;;;-148.88;100.00;-17125.47;5074847;28;20056;-88
2024/01/23 09:15:18;;;;;;;12.60;2.00;;;;;;;-148.88;100.00;-17125.47;5076147;28;20059;-86
2024/01/23 09:17:44;;;;;;;15.25;2.45;;;;;;;-148.88;100.00;-17125.47;5075061;28;20025;-87
2024/01/23 09:20:10;;;;;;;18.00;2.85;;;;;;;-148.88;100.00;-17125.47;5075788;28;20063;-85
2024/01/23 09:22:35;;;;;;;17.65;2.40;;;;;;;-148.88;100.00;-17125.47;5074471;28;20112;-88
2024/01/23 09:25:03;;;;;;;13.82;1.90;;;;;;;-148.88;100.00;-17125.47;5074421;28;20115;-88
2024/01/23 09:27:28;;;;;;;18.30;2.65;;;;;;;-148.88;100.00;-17125.47;5074824;28;20016;-86
2024/01/23 09:29:54;;;;;;;10.95;2.08;;;;;;;-148.88;100.00;-17125.47;5075220;28;20055;-88
2024/01/23 09:32:19;;;;;;;16.70;2.38;;;;;;;-148.88;100.00;-17125.47;5075683;28;20037;-87
2024/01/23 09:34:47;;;;;;;14.20;2.25;;;;;;;-148.88;100.00;-17125.47;5074145;28;20020;-87
2024/01/23 09:37:13;;;;;;;21.35;2.35;;;;;;;-148.88;100.00;-17125.47;5075389;28;20020;-86
2024/01/23 09:39:38;;;;;;;12.88;3.05;;;;;;;-148.88;100.00;-17125.47;5075505;28;20031;-88
2024/01/23 09:42:04;;;;;;;18.88;2.63;;;;;;;-148.88;100.00;-17125.47;5075237;28;20399;-88
2024/01/23 09:44:31;;;;;;;22.08;3.08;;;;;;;-148.88;100.00;-17125.47;5074474;28;20056;-87
2024/01/23 09:46:57;;;;;;;11.55;2.28;;;;;;;-148.88;100.00;-17125.47;5074739;28;20021;-88
2024/01/23 09:49:22;;;;;;;21.90;2.83;;;;;;;-148.88;100.00;-17125.47;5074178;28;20027;-88
2024/01/23 09:51:49;;;;;;;16.40;2.42;;;;;;;-148.88;100.00;-17125.47;5074084;28;20021;-87
2024/01/23 09:54:15;;;;;;;17.85;2.17;;;;;;;-148.88;100.00;-17125.47;5075514;28;20037;-87
2024/01/23 09:56:40;;;;;;;10.27;2.58;;;;;;;-148.88;100.00;-17125.47;5075551;28;20037;-86
2024/01/23 09:59:12;;;;;;;15.30;2.05;;;;;;;-148.88;100.00;-17125.47;5075265;28;20021;-87
2024/01/23 10:01:37;;;;;;;12.40;2.58;;;;;;;-148.88;100.00;-17125.47;5074307;28;20031;-87
2024/01/23 10:04:04;;;;;;;12.73;2.03;;;;;;;-148.88;100.00;-17125.47;5075553;28;20024;-89
2024/01/23 10:06:33;;;;;;;13.98;3.08;;;;;;;-148.88;100.00;-17125.47;5075668;28;20020;-87
2024/01/23 10:08:59;;;;;;;15.32;2.70;;;;;;;-148.88;100.00;-17125.47;5075343;28;20386;-88
2024/01/23 10:11:28;;;;;;;15.25;3.05;;;;;;;-148.88;100.00;-17125.47;5074316;28;20028;-87
2024/01/23 10:13:56;;;;;;;13.27;2.50;;;;;;;-148.88;100.00;-17125.47;5075338;28;20044;-88
2024/01/23 10:16:25;;;;;;;14.85;2.20;;;;;;;-148.88;100.00;-17125.47;5073848;28;20048;-88
2024/01/23 10:18:50;;;;;;;15.73;2.03;;;;;;;-148.88;100.00;-17125.47;5074889;28;20016;-88
2024/01/23 10:21:25;;;;;;;18.17;2.83;;;;;;;-148.88;100.00;-17125.47;5073719;28;20028;-87
2024/01/23 10:23:51;;;;;;;19.95;2.35;;;;;;;-148.88;100.00;-17125.47;5074588;28;20031;-87
2024/01/23 10:26:17;;;;;;;13.32;2.45;;;;;;;-148.88;100.00;-17125.47;5075125;28;20021;-88
2024/01/23 10:28:47;;;;;;;16.40;2.35;;;;;;;-148.88;100.00;-17125.47;5074189;28;20471;-88
2024/01/23 10:31:13;;;;;;;14.13;2.58;;;;;;;-148.88;100.00;-17125.47;5074712;28;20024;-87
2024/01/23 10:33:38;;;;;;;10.60;2.13;;;;;;;-148.88;100.00;-17125.47;5074713;28;20020;-88
2024/01/23 10:36:08;;;;;;;13.00;3.03;;;;;;;-148.88;100.00;-17125.47;5074500;28;20193;-87
2024/01/23 10:38:37;;;;;;;17.88;2.65;;;;;;;-148.88;100.00;-17125.47;5074233;28;20078;-86
2024/01/23 10:41:04;;;;;;;9.60;1.95;;;;;;;-148.88;100.00;-17125.47;5074657;28;20032;-88
2024/01/23 10:43:30;;;;;;;12.93;2.80;;;;;;;-148.88;100.00;-17125.47;5072983;28;20032;-88
2024/01/23 10:46:02;;;;;;;12.85;3.03;;;;;;;-148.88;100.00;-17125.47;5073247;28;20099;-88
2024/01/23 10:48:29;;;;;;;16.92;2.90;;;;;;;-148.88;100.00;-17125.47;5073044;28;20107;-88
2024/01/23 10:51:00;;;;;;;13.23;3.28;;;;;;;-148.88;100.00;-17125.47;5072911;28;20020;-90